Time,TemperatureF,DewpointF,PressureIn,WindDirection,WindDirectionDegrees,WindSpeedMPH,WindSpeedGustMPH,Humidity,HourlyPrecipIn,Conditions,Clouds,dailyrainin,SoftwareType,DateUTC
2013-08-31 00:01:00,66.0,65.4,29.90,NW,315,0.0,-999.0,98,-99.99,,,0.00,Acu-Link.com,2013-08-31 05:01:00,
2013-08-31 00:17:00,65.7,65.1,29.91,West,270,0.0,-999.0,98,-99.99,,,0.00,Acu-Link.com,2013-08-31 05:17:00,
2013-08-31 00:32:00,65.5,64.9,29.92,WNW,292,0.0,-999.0,98,-99.99,,,0.00,Acu-Link.com,2013-08-31 05:32:00,
2013-08-31 00:47:00,65.5,64.9,29.91,ENE,67,1.7,-999.0,98,-99.99,,,0.00,Acu-Link.com,2013-08-31 05:47:00,
2013-08-31 01:03:00,66.0,65.4,29.91,NNE,22,1.7,-999.0,98,-99.99,,,0.00,Acu-Link.com,2013-08-31 06:03:00,
2013-08-31 01:18:00,66.0,65.4,29.91,SE,135,1.1,-999.0,98,-99.99,,,0.00,Acu-Link.com,2013-08-31 06:18:00,
2013-08-31 01:33:00,66.0,65.4,29.91,SSE,157,1.7,-999.0,98,-99.99,,,0.00,Acu-Link.com,2013-08-31 06:33:00,
2013-08-31 01:49:00,66.0,65.4,29.90,East,90,1.7,-999.0,98,-99.99,,,0.00,Acu-Link.com,2013-08-31 06:49:00,
2013-08-31 02:04:00,65.8,65.2,29.91,SSW,202,1.1,-999.0,98,-99.99,,,0.00,Acu-Link.com,2013-08-31 07:04:00,
2013-08-31 02:19:00,64.6,64.0,29.90,NNW,337,0.0,-999.0,98,-99.99,,,0.00,Acu-Link.com,2013-08-31 07:19:00,
2013-08-31 02:35:00,63.7,63.1,29.90,NE,45,0.0,-999.0,98,-99.99,,,0.00,Acu-Link.com,2013-08-31 07:35:00,
2013-08-31 02:50:00,63.7,63.1,29.90,NNW,337,0.0,-999.0,98,-99.99,,,0.00,Acu-Link.com,2013-08-31 07:50:00,
2013-08-31 03:06:00,63.1,62.5,29.90,North,0,0.0,-999.0,98,-99.99,,,0.00,Acu-Link.com,2013-08-31 08:06:00,
2013-08-31 03:21:00,63.1,62.5,29.91,NW,315,0.0,-999.0,98,-99.99,,,0.00,Acu-Link.com,2013-08-31 08:21:00,
2013-08-31 03:37:00,62.6,62.0,29.91,WNW,292,0.0,-999.0,98,-99.99,,,0.00,Acu-Link.com,2013-08-31 08:37:00,
2013-08-31 03:52:00,62.4,61.8,29.90,NW,315,1.7,-999.0,98,-99.99,,,0.00,Acu-Link.com,2013-08-31 08:52:00,
2013-08-31 04:07:00,61.9,61.3,29.90,NW,315,0.0,-999.0,98,-99.99,,,0.00,Acu-Link.com,2013-08-31 09:07:00,
2013-08-31 04:22:00,61.7,61.1,29.90,NNE,22,1.7,-999.0,98,-99.99,,,0.00,Acu-Link.com,2013-08-31 09:22:00,
2013-08-31 04:37:00,61.9,61.3,29.91,NNE,22,0.0,-999.0,98,-99.99,,,0.00,Acu-Link.com,2013-08-31 09:37:00,
2013-08-31 04:53:00,61.3,60.7,29.90,ENE,67,0.0,-999.0,98,-99.99,,,0.00,Acu-Link.com,2013-08-31 09:53:00,
2013-08-31 05:08:00,61.3,60.7,29.90,NW,315,0.0,-999.0,98,-99.99,,,0.00,Acu-Link.com,2013-08-31 10:08:00,
2013-08-31 05:23:00,61.2,60.6,29.89,North,0,0.0,-999.0,98,-99.99,,,0.00,Acu-Link.com,2013-08-31 10:23:00,
2013-08-31 05:38:00,61.0,60.4,29.89,NW,315,0.0,-999.0,98,-99.99,,,0.00,Acu-Link.com,2013-08-31 10:38:00,
2013-08-31 05:54:00,60.6,60.0,29.89,West,270,0.0,-999.0,98,-99.99,,,0.00,Acu-Link.com,2013-08-31 10:54:00,
2013-08-31 06:09:00,61.3,60.7,29.89,South,180,2.2,-999.0,98,-99.99,,,0.00,Acu-Link.com,2013-08-31 11:09:00,
2013-08-31 06:24:00,61.3,60.7,29.89,SSW,202,2.2,-999.0,98,-99.99,,,0.00,Acu-Link.com,2013-08-31 11:24:00,
2013-08-31 06:40:00,61.5,60.9,29.89,South,180,1.7,-999.0,98,-99.99,,,0.00,Acu-Link.com,2013-08-31 11:40:00,
2013-08-31 06:55:00,61.5,60.9,29.89,SE,135,0.0,-999.0,98,-99.99,,,0.00,Acu-Link.com,2013-08-31 11:55:00,
2013-08-31 07:10:00,61.7,61.1,29.88,South,180,2.7,-999.0,98,-99.99,,,0.00,Acu-Link.com,2013-08-31 12:10:00,
2013-08-31 07:25:00,61.9,61.3,29.89,West,270,0.0,-999.0,98,-99.99,,,0.00,Acu-Link.com,2013-08-31 12:25:00,
2013-08-31 07:41:00,64.2,63.6,29.88,SSE,157,3.7,-999.0,98,-99.99,,,0.00,Acu-Link.com,2013-08-31 12:41:00,
2013-08-31 07:56:00,67.3,66.7,29.88,SE,135,2.7,-999.0,98,-99.99,,,0.00,Acu-Link.com,2013-08-31 12:56:00,
2013-08-31 08:11:00,68.7,68.1,29.87,ESE,112,4.7,-999.0,98,-99.99,,,0.00,Acu-Link.com,2013-08-31 13:11:00,
2013-08-31 08:26:00,70.0,69.4,29.88,SSE,157,5.8,-999.0,98,-99.99,,,0.00,Acu-Link.com,2013-08-31 13:26:00,
2013-08-31 08:41:00,71.1,69.9,29.87,SSE,157,6.3,-999.0,96,-99.99,,,0.00,Acu-Link.com,2013-08-31 13:41:00,
2013-08-31 08:56:00,71.2,70.0,29.87,South,180,3.2,-999.0,96,-99.99,,,0.00,Acu-Link.com,2013-08-31 13:56:00,
2013-08-31 09:11:00,71.2,70.0,29.87,SSE,157,3.7,-999.0,96,-99.99,,,0.00,Acu-Link.com,2013-08-31 14:11:00,
2013-08-31 09:26:00,71.8,70.0,29.86,South,180,4.7,-999.0,94,-99.99,,,0.00,Acu-Link.com,2013-08-31 14:26:00,
2013-08-31 09:42:00,73.4,70.9,29.86,South,180,6.3,-999.0,92,-99.99,,,0.00,Acu-Link.com,2013-08-31 14:42:00,
2013-08-31 09:57:00,74.8,71.3,29.86,SSE,157,4.2,-999.0,89,-99.99,,,0.00,Acu-Link.com,2013-08-31 14:57:00,
2013-08-31 10:13:00,75.0,71.2,29.86,South,180,3.2,-999.0,88,-99.99,,,0.00,Acu-Link.com,2013-08-31 15:13:00,
2013-08-31 10:28:00,77.0,72.1,29.86,SSW,202,4.7,-999.0,85,-99.99,,,0.00,Acu-Link.com,2013-08-31 15:28:00,
2013-08-31 10:43:00,78.3,73.1,29.86,South,180,5.8,-999.0,84,-99.99,,,0.00,Acu-Link.com,2013-08-31 15:43:00,
2013-08-31 10:58:00,79.3,72.9,29.86,SSE,157,4.2,-999.0,81,-99.99,,,0.00,Acu-Link.com,2013-08-31 15:58:00,
2013-08-31 11:13:00,79.7,73.0,29.86,South,180,4.7,-999.0,80,-99.99,,,0.00,Acu-Link.com,2013-08-31 16:13:00,
2013-08-31 11:28:00,80.2,73.1,29.87,West,270,6.8,-999.0,79,-99.99,,,0.00,Acu-Link.com,2013-08-31 16:28:00,
2013-08-31 11:44:00,80.2,72.3,29.86,South,180,5.3,-999.0,77,-99.99,,,0.00,Acu-Link.com,2013-08-31 16:44:00,
2013-08-31 11:59:00,82.0,73.3,29.86,WSW,247,5.3,-999.0,75,-99.99,,,0.00,Acu-Link.com,2013-08-31 16:59:00,
2013-08-31 12:14:00,83.3,73.7,29.85,WNW,292,4.2,-999.0,73,-99.99,,,0.00,Acu-Link.com,2013-08-31 17:14:00,
2013-08-31 12:29:00,83.1,73.1,29.85,South,180,3.2,-999.0,72,-99.99,,,0.00,Acu-Link.com,2013-08-31 17:29:00,
2013-08-31 12:44:00,83.8,73.8,29.84,NNE,22,4.7,-999.0,72,-99.99,,,0.00,Acu-Link.com,2013-08-31 17:44:00,
2013-08-31 13:00:00,84.6,73.7,29.83,ENE,67,1.7,-999.0,70,-99.99,,,0.00,Acu-Link.com,2013-08-31 18:00:00,
2013-08-31 13:15:00,84.2,72.9,29.83,NNE,22,0.0,-999.0,69,-99.99,,,0.00,Acu-Link.com,2013-08-31 18:15:00,
2013-08-31 13:30:00,85.3,73.1,29.83,SE,135,2.7,-999.0,67,-99.99,,,0.00,Acu-Link.com,2013-08-31 18:30:00,
2013-08-31 13:45:00,86.0,74.6,29.83,South,180,4.2,-999.0,69,-99.99,,,0.00,Acu-Link.com,2013-08-31 18:45:00,
2013-08-31 14:00:00,85.3,73.5,29.82,SSE,157,5.8,-999.0,68,-99.99,,,0.00,Acu-Link.com,2013-08-31 19:00:00,
2013-08-31 14:15:00,85.8,73.1,29.82,SW,225,5.8,-999.0,66,-99.99,,,0.00,Acu-Link.com,2013-08-31 19:15:00,
2013-08-31 14:31:00,86.7,74.4,29.81,South,180,4.7,-999.0,67,-99.99,,,0.00,Acu-Link.com,2013-08-31 19:31:00,
2013-08-31 14:46:00,86.0,72.8,29.81,SSW,202,6.8,-999.0,65,-99.99,,,0.00,Acu-Link.com,2013-08-31 19:46:00,
2013-08-31 15:01:00,86.5,74.2,29.80,SSE,157,4.7,-999.0,67,-99.99,,,0.00,Acu-Link.com,2013-08-31 20:01:00,
2013-08-31 15:16:00,87.4,74.6,29.80,South,180,4.7,-999.0,66,-99.99,,,0.00,Acu-Link.com,2013-08-31 20:16:00,
2013-08-31 15:31:00,87.3,75.0,29.80,South,180,6.3,-999.0,67,-99.99,,,0.00,Acu-Link.com,2013-08-31 20:31:00,
2013-08-31 15:46:00,86.4,74.1,29.79,SSW,202,4.2,-999.0,67,-99.99,,,0.00,Acu-Link.com,2013-08-31 20:46:00,
2013-08-31 16:02:00,87.1,74.3,29.80,SW,225,3.2,-999.0,66,-99.99,,,0.00,Acu-Link.com,2013-08-31 21:02:00,
2013-08-31 16:17:00,86.9,73.2,29.79,WSW,247,4.7,-999.0,64,-99.99,,,0.00,Acu-Link.com,2013-08-31 21:17:00,
2013-08-31 16:32:00,87.3,73.6,29.78,SSE,157,4.7,-999.0,64,-99.99,,,0.00,Acu-Link.com,2013-08-31 21:32:00,
2013-08-31 16:47:00,87.3,74.1,29.76,SSW,202,3.2,-999.0,65,-99.99,,,0.00,Acu-Link.com,2013-08-31 21:47:00,
2013-08-31 17:02:00,86.9,75.0,29.76,SSE,157,4.7,-999.0,68,-99.99,,,0.00,Acu-Link.com,2013-08-31 22:02:00,
2013-08-31 17:17:00,84.4,73.9,29.74,SSE,157,5.8,-999.0,71,-99.99,,,0.00,Acu-Link.com,2013-08-31 22:17:00,
2013-08-31 17:32:00,84.0,74.0,29.77,WSW,247,2.7,-999.0,72,-99.99,,,0.00,Acu-Link.com,2013-08-31 22:32:00,
2013-08-31 17:48:00,84.4,74.8,29.79,WSW,247,0.0,-999.0,73,-99.99,,,0.00,Acu-Link.com,2013-08-31 22:48:00,
2013-08-31 18:03:00,83.1,73.5,29.80,WSW,247,2.2,-999.0,73,-99.99,,,0.00,Acu-Link.com,2013-08-31 23:03:00,
2013-08-31 18:18:00,81.9,73.2,29.79,West,270,0.0,-999.0,75,-99.99,,,0.00,Acu-Link.com,2013-08-31 23:18:00,
2013-08-31 18:33:00,80.1,73.7,29.81,WNW,292,0.0,-999.0,81,-99.99,,,0.00,Acu-Link.com,2013-08-31 23:33:00,
2013-08-31 18:49:00,78.8,73.5,29.84,North,0,4.7,-999.0,84,-99.99,,,0.00,Acu-Link.com,2013-08-31 23:49:00,
2013-08-31 19:04:00,78.8,72.8,29.83,NNW,337,3.7,-999.0,82,-99.99,,,0.00,Acu-Link.com,2013-09-01 00:04:00,
2013-08-31 19:19:00,76.8,71.9,29.89,North,0,17.6,-999.0,85,-99.99,,,0.00,Acu-Link.com,2013-09-01 00:19:00,
2013-08-31 19:34:00,72.0,69.9,29.89,NNW,337,9.4,-999.0,93,-99.99,,,0.01,Acu-Link.com,2013-09-01 00:34:00,
2013-08-31 19:49:00,70.2,69.3,29.88,NW,315,6.3,-999.0,97,-99.99,,,0.03,Acu-Link.com,2013-09-01 00:49:00,
2013-08-31 20:04:00,69.8,68.6,29.88,North,0,9.4,-999.0,96,-99.99,,,0.05,Acu-Link.com,2013-09-01 01:04:00,
2013-08-31 20:20:00,69.3,68.4,29.89,North,0,8.3,-999.0,97,-99.99,,,0.05,Acu-Link.com,2013-09-01 01:20:00,
2013-08-31 20:35:00,68.4,67.8,29.85,ESE,112,5.8,-999.0,98,-99.99,,,0.10,Acu-Link.com,2013-09-01 01:35:00,
2013-08-31 20:50:00,68.0,67.4,29.82,ESE,112,4.2,-999.0,98,-99.99,,,0.12,Acu-Link.com,2013-09-01 01:50:00,
2013-08-31 21:05:00,67.6,67.0,29.79,South,180,7.3,-999.0,98,-99.99,,,0.14,Acu-Link.com,2013-09-01 02:05:00,
2013-08-31 21:21:00,67.1,66.5,29.79,SSW,202,0.0,-999.0,98,-99.99,,,0.15,Acu-Link.com,2013-09-01 02:21:00,
2013-08-31 21:36:00,67.8,66.6,29.78,South,180,4.7,-999.0,96,-99.99,,,0.15,Acu-Link.com,2013-09-01 02:36:00,
2013-08-31 21:51:00,67.8,66.3,29.76,South,180,5.3,-999.0,95,-99.99,,,0.15,Acu-Link.com,2013-09-01 02:51:00,
2013-08-31 22:06:00,66.9,66.3,29.79,WSW,247,5.8,-999.0,98,-99.99,,,0.15,Acu-Link.com,2013-09-01 03:06:00,
2013-08-31 22:21:00,67.3,66.7,29.73,SE,135,6.8,-999.0,98,-99.99,,,0.15,Acu-Link.com,2013-09-01 03:21:00,
2013-08-31 22:36:00,67.3,66.7,29.75,SW,225,3.7,-999.0,98,-99.99,,,0.15,Acu-Link.com,2013-09-01 03:36:00,
2013-08-31 22:52:00,67.3,66.7,29.75,SE,135,4.2,-999.0,98,-99.99,,,0.15,Acu-Link.com,2013-09-01 03:52:00,
2013-08-31 23:07:00,67.1,66.5,29.77,NNW,337,1.1,-999.0,98,-99.99,,,0.15,Acu-Link.com,2013-09-01 04:07:00,
2013-08-31 23:22:00,66.9,66.3,29.78,NNW,337,7.3,-999.0,98,-99.99,,,0.15,Acu-Link.com,2013-09-01 04:22:00,
2013-08-31 23:37:00,68.9,67.4,29.76,SSW,202,7.3,-999.0,95,-99.99,,,0.15,Acu-Link.com,2013-09-01 04:37:00,
2013-08-31 23:52:00,68.7,67.5,29.74,WSW,247,8.3,-999.0,96,-99.99,,,0.15,Acu-Link.com,2013-09-01 04:52:00,